Time;durP1;ratioP1;P1;durP2;ratioP2;P2;SDS_P1;SDS_P2;PMS_P1;PMS_P2;Temp;Humidity;BMP_temperature;BMP_pressure;BME280_temperature;BME280_humidity;BME280_pressure;Samples;Min_cycle;Max_cycle;Signal;HPM_P1;HPM_P2
2022/08/13 00:01:37;;;;;;;;;;;;;;;23.09;45.12695;101807.7;;;;-75
2022/08/13 00:06:50;;;;;;;;;;;;;;;23.04;45.26074;101807.2;;;;-75
2022/08/13 00:07:11;;;;;;;5.6;3.1;;;;;;;;;;;;;-75
2022/08/13 00:16:32;;;;;;;;;;;;;;;22.9;45.64941;101799.7;;;;-75
2022/08/13 00:21:28;;;;;;;;;;;;;;;22.85;45.79199;101807.2;;;;-75
2022/08/13 00:26:29;;;;;;;;;;;;;;;22.79;45.86719;101800.5;;;;-75
2022/08/13 00:31:28;;;;;;;;;;;;;;;22.75;45.86328;101803.1;;;;-74
2022/08/13 00:36:34;;;;;;;;;;;;;;;22.71;45.70898;101797.5;;;;-75
2022/08/13 00:36:47;;;;;;;4.8;2.8;;;;;;;;;;;;;-75
2022/08/13 00:46:28;;;;;;;;;;;;;;;22.55;45.76367;101793.4;;;;-75
2022/08/13 00:51:29;;;;;;;;;;;;;;;22.48;45.80078;101802.1;;;;-76
2022/08/13 00:56:30;;;;;;;;;;;;;;;22.43;46.12891;101800.8;;;;-75
2022/08/13 01:01:29;;;;;;;;;;;;;;;22.33;46.05078;101793.9;;;;-75
2022/08/13 01:06:28;;;;;;;;;;;;;;;22.26;45.81348;101791.1;;;;-76
2022/08/13 01:06:48;;;;;;;4.7;3;;;;;;;;;;;;;-74
2022/08/13 01:11:28;;;;;;;;;;;;;;;22.2;45.77246;101788.6;;;;-75
2022/08/13 01:16:36;;;;;;;;;;;;;;;22.14;45.93848;101790.5;;;;-75
2022/08/13 01:21:29;;;;;;;;;;;;;;;22.08;46.13867;101787.7;;;;-74
2022/08/13 01:26:30;;;;;;;;;;;;;;;22;46.36035;101790.6;;;;-75
2022/08/13 01:31:28;;;;;;;;;;;;;;;21.95;46.46973;101788.3;;;;-75
2022/08/13 01:36:29;;;;;;;;;;;;;;;21.89;46.64746;101791.1;;;;-75
2022/08/13 01:36:52;;;;;;;5.6;2.9;;;;;;;;;;;;;-74
2022/08/13 01:41:28;;;;;;;;;;;;;;;21.86;46.86133;101784.8;;;;-75
2022/08/13 01:50:28;;;;;;;;;;;;;;;21.82;46.94922;101786.9;;;;-75
2022/08/13 01:51:29;;;;;;;;;;;;;;;21.77;46.84082;101787.4;;;;-74
2022/08/13 01:56:29;;;;;;;;;;;;;;;21.68;46.6709;101785.5;;;;-75
2022/08/13 02:01:30;;;;;;;;;;;;;;;21.63;46.92871;101785.1;;;;-75
2022/08/13 02:06:29;;;;;;;;;;;;;;;21.58;47.0498;101792.4;;;;-74
2022/08/13 02:06:54;;;;;;;7.8;2.8;;;;;;;;;;;;;-75
2022/08/13 02:11:28;;;;;;;;;;;;;;;21.53;46.9541;101783.9;;;;-75
2022/08/13 02:16:31;;;;;;;;;;;;;;;21.47;46.78613;101786.9;;;;-74
2022/08/13 02:21:30;;;;;;;;;;;;;;;21.44;46.81738;101787.8;;;;-74
2022/08/13 02:26:29;;;;;;;;;;;;;;;21.39;46.88184;101794.3;;;;-75
2022/08/13 02:31:28;;;;;;;;;;;;;;;21.31;46.62109;101791.8;;;;-74
2022/08/13 02:36:30;;;;;;;;;;;;;;;21.28;46.60645;101794.8;;;;-75
2022/08/13 02:36:58;;;;;;;3.8;2.7;;;;;;;;;;;;;-75
2022/08/13 02:41:46;;;;;;;;;;;;;;;21.24;46.5;101796.1;;;;-75
2022/08/13 02:46:28;;;;;;;;;;;;;;;21.16;46.54883;101794.2;;;;-74
2022/08/13 02:51:28;;;;;;;;;;;;;;;21.09;46.54102;101795.1;;;;-76
2022/08/13 02:56:28;;;;;;;;;;;;;;;21.07;46.34473;101800.5;;;;-74
2022/08/13 03:01:29;;;;;;;;;;;;;;;21.01;46.24609;101798.8;;;;-74
2022/08/13 03:06:28;;;;;;;;;;;;;;;20.97;46.33398;101794.3;;;;-74
2022/08/13 03:07:01;;;;;;;5.7;2.6;;;;;;;;;;;;;-74
2022/08/13 03:11:28;;;;;;;;;;;;;;;20.92;46.13379;101794.1;;;;-75
2022/08/13 03:16:29;;;;;;;;;;;;;;;20.86;46.17383;101794.6;;;;-74
2022/08/13 03:21:30;;;;;;;;;;;;;;;20.8;46.17773;101795.6;;;;-75
2022/08/13 03:26:28;;;;;;;;;;;;;;;20.78;46.0625;101798.7;;;;-74
2022/08/13 03:31:28;;;;;;;;;;;;;;;20.72;46.0791;101797.8;;;;-75
2022/08/13 03:36:29;;;;;;;;;;;;;;;20.65;46.19824;101797.3;;;;-76
2022/08/13 03:37:06;;;;;;;5.9;2.7;;;;;;;;;;;;;-74
2022/08/13 03:41:28;;;;;;;;;;;;;;;20.64;46.16211;101798.8;;;;-74
2022/08/13 03:46:29;;;;;;;;;;;;;;;20.56;46.14258;101794.9;;;;-73
2022/08/13 03:51:28;;;;;;;;;;;;;;;20.52;46.11523;101794.5;;;;-74
2022/08/13 03:56:28;;;;;;;;;;;;;;;20.49;46.21484;101792.8;;;;-73
2022/08/13 04:01:29;;;;;;;;;;;;;;;20.41;46.24121;101790.1;;;;-75
2022/08/13 04:06:29;;;;;;;;;;;;;;;20.38;46.17969;101790.2;;;;-74
2022/08/13 04:07:09;;;;;;;3.4;2.3;;;;;;;;;;;;;-75
2022/08/13 04:11:28;;;;;;;;;;;;;;;20.35;46.40625;101792.3;;;;-74
2022/08/13 04:16:29;;;;;;;;;;;;;;;20.29;46.45703;101792.1;;;;-74
2022/08/13 04:21:31;;;;;;;;;;;;;;;20.25;46.54395;101789.3;;;;-75
2022/08/13 04:26:29;;;;;;;;;;;;;;;20.22;46.51855;101786.8;;;;-74
2022/08/13 04:31:28;;;;;;;;;;;;;;;20.19;46.51563;101789.6;;;;-74
2022/08/13 04:36:28;;;;;;;;;;;;;;;20.14;46.46484;101788.8;;;;-74
2022/08/13 04:37:11;;;;;;;4.3;2.5;;;;;;;;;;;;;-75
2022/08/13 04:41:28;;;;;;;;;;;;;;;20.11;46.43945;101786.7;;;;-75
2022/08/13 04:46:28;;;;;;;;;;;;;;;20.08;46.45703;101788.7;;;;-75
2022/08/13 04:51:31;;;;;;;;;;;;;;;20.07;46.42285;101791;;;;-74
2022/08/13 04:56:31;;;;;;;;;;;;;;;20.05;46.5459;101792.9;;;;-75
2022/08/13 05:01:29;;;;;;;;;;;;;;;20.03;46.45215;101792.5;;;;-75
2022/08/13 05:06:28;;;;;;;;;;;;;;;20.03;46.5332;101795.3;;;;-74
2022/08/13 05:07:15;;;;;;;3.5;2.5;;;;;;;;;;;;;-74
2022/08/13 05:11:28;;;;;;;;;;;;;;;20.03;46.52148;101802.1;;;;-75
2022/08/13 05:16:28;;;;;;;;;;;;;;;20.02;46.46289;101800.8;;;;-75
2022/08/13 05:21:29;;;;;;;;;;;;;;;19.99;46.45996;101800.5;;;;-74
2022/08/13 05:26:31;;;;;;;;;;;;;;;20.01;46.37109;101799.5;;;;-74
2022/08/13 05:31:28;;;;;;;;;;;;;;;20.05;46.53418;101802;;;;-74
2022/08/13 05:36:31;;;;;;;;;;;;;;;20.07;46.50195;101799.5;;;;-74
2022/08/13 05:37:17;;;;;;;3.6;2.4;;;;;;;;;;;;;-74
2022/08/13 05:41:28;;;;;;;;;;;;;;;20.09;46.58594;101796.8;;;;-74
2022/08/13 05:46:28;;;;;;;;;;;;;;;20.2;47.38477;101797.6;;;;-74
2022/08/13 05:51:29;;;;;;;;;;;;;;;20.61;46.59375;101791.5;;;;-74
2022/08/13 05:56:29;;;;;;;;;;;;;;;21.22;45.69531;101792.9;;;;-73
2022/08/13 06:06:29;;;;;;;;;;;;;;;22.5;43.72363;101794.8;;;;-73
2022/08/13 06:07:22;;;;;;;4;2.3;;;;;;;;;;;;;-75
2022/08/13 06:11:30;;;;;;;;;;;;;;;23.1;42.71094;101795.8;;;;-75
2022/08/13 06:16:30;;;;;;;;;;;;;;;23.63;41.83984;101798;;;;-75
2022/08/13 06:21:30;;;;;;;;;;;;;;;24.12;41.04297;101796.8;;;;-75
2022/08/13 06:26:29;;;;;;;;;;;;;;;24.57;40.18262;101788.4;;;;-75
2022/08/13 06:31:31;;;;;;;;;;;;;;;24.99;39.51465;101791.7;;;;-75
2022/08/13 06:36:29;;;;;;;;;;;;;;;25.39;38.94824;101793.5;;;;-75
2022/08/13 06:37:23;;;;;;;3.5;2;;;;;;;;;;;;;-75
2022/08/13 06:41:31;;;;;;;;;;;;;;;25.75;38.39844;101792.6;;;;-75
2022/08/13 06:46:28;;;;;;;;;;;;;;;26.09;37.98633;101797;;;;-74
2022/08/13 06:51:29;;;;;;;;;;;;;;;26.41;37.74609;101795.4;;;;-75
2022/08/13 06:56:30;;;;;;;;;;;;;;;26.82;37.22266;101798.6;;;;-75
2022/08/13 07:01:29;;;;;;;;;;;;;;;27.16;36.83203;101797.7;;;;-74
2022/08/13 07:06:30;;;;;;;;;;;;;;;27.51;36.60352;101801.1;;;;-74
2022/08/13 07:07:28;;;;;;;4.6;2.1;;;;;;;;;;;;;-73
2022/08/13 07:11:31;;;;;;;;;;;;;;;27.84;36.10645;101805.6;;;;-74
2022/08/13 07:16:30;;;;;;;;;;;;;;;28.18;35.71289;101803.7;;;;-75
2022/08/13 07:21:29;;;;;;;;;;;;;;;28.45;35.50098;101806.8;;;;-75
2022/08/13 07:26:33;;;;;;;;;;;;;;;28.7;35.28711;101799.5;;;;-74
2022/08/13 07:31:30;;;;;;;;;;;;;;;28.91;35.13965;101800.5;;;;-74
2022/08/13 07:36:29;;;;;;;;;;;;;;;29.21;34.92969;101804.9;;;;-75
2022/08/13 07:37:32;;;;;;;3.4;1.7;;;;;;;;;;;;;-77
2022/08/13 07:41:28;;;;;;;;;;;;;;;29.48;34.73926;101807.9;;;;-74
2022/08/13 07:46:29;;;;;;;;;;;;;;;29.67;34.64844;101807.7;;;;-75
2022/08/13 07:51:29;;;;;;;;;;;;;;;29.87;34.52246;101807.5;;;;-74
2022/08/13 07:56:30;;;;;;;;;;;;;;;30.11;34.22559;101815.1;;;;-74
2022/08/13 08:01:28;;;;;;;;;;;;;;;30.29;33.95703;101811;;;;-75
2022/08/13 08:06:29;;;;;;;;;;;;;;;30.52;33.49219;101815.5;;;;-78
2022/08/13 08:07:37;;;;;;;3.6;1.7;;;;;;;;;;;;;-75
2022/08/13 08:16:29;;;;;;;;;;;;;;;30.94;33.10059;101816.3;;;;-75
2022/08/13 08:21:29;;;;;;;;;;;;;;;31.21;32.72168;101816.2;;;;-75
2022/08/13 08:26:28;;;;;;;;;;;;;;;31.49;32.36426;101822.5;;;;-76
2022/08/13 08:31:29;;;;;;;;;;;;;;;31.82;31.94043;101823.6;;;;-74
2022/08/13 08:36:28;;;;;;;;;;;;;;;32.07;31.72266;101827.9;;;;-75
2022/08/13 08:46:33;;;;;;;;;;;;;;;32.55;31.1543;101831.7;;;;-75
2022/08/13 08:51:29;;;;;;;;;;;;;;;32.81;30.91211;101831.5;;;;-75
2022/08/13 08:56:33;;;;;;;;;;;;;;;33.03;30.78516;101824.7;;;;-75
2022/08/13 09:01:30;;;;;;;;;;;;;;;33.35;30.52344;101832.5;;;;-74
2022/08/13 09:06:30;;;;;;;;;;;;;;;33.6;30.17285;101825.6;;;;-74
2022/08/13 09:07:49;;;;;;;3.2;1.7;;;;;;;;;;;;;-73
2022/08/13 09:11:29;;;;;;;;;;;;;;;33.77;30.05469;101821;;;;-75
2022/08/13 09:16:28;;;;;;;;;;;;;;;34.05;29.83594;101819.4;;;;-75
2022/08/13 09:21:29;;;;;;;;;;;;;;;34.34;29.40527;101818.5;;;;-74
2022/08/13 09:26:28;;;;;;;;;;;;;;;34.53;28.99023;101819;;;;-76
2022/08/13 09:31:29;;;;;;;;;;;;;;;34.74;28.88477;101821.1;;;;-74
2022/08/13 09:36:31;;;;;;;;;;;;;;;34.93;28.30371;101814.8;;;;-76
2022/08/13 09:37:55;;;;;;;3.1;1.5;;;;;;;;;;;;;-75
2022/08/13 09:41:30;;;;;;;;;;;;;;;35.14;28.18652;101814.3;;;;-74
2022/08/13 09:46:28;;;;;;;;;;;;;;;35.34;27.85352;101810.1;;;;-76
2022/08/13 09:51:30;;;;;;;;;;;;;;;35.58;27.66602;101808.8;;;;-75
2022/08/13 09:56:28;;;;;;;;;;;;;;;35.84;27.38477;101804.6;;;;-75
2022/08/13 10:01:28;;;;;;;;;;;;;;;36.08;26.82715;101800.9;;;;-75
2022/08/13 10:06:32;;;;;;;;;;;;;;;36.3;27.16211;101794.4;;;;-76
2022/08/13 10:07:59;;;;;;;3;1.5;;;;;;;;;;;;;-75
2022/08/13 10:11:28;;;;;;;;;;;;;;;36.6;26.75;101793.9;;;;-76
2022/08/13 10:16:28;;;;;;;;;;;;;;;36.91;26.54199;101781.7;;;;-76
2022/08/13 10:21:28;;;;;;;;;;;;;;;37.27;26.01367;101781.5;;;;-76
2022/08/13 10:26:29;;;;;;;;;;;;;;;37.55;25.39648;101775.2;;;;-75
2022/08/13 10:31:28;;;;;;;;;;;;;;;37.67;24.98438;101770.3;;;;-74
2022/08/13 10:36:28;;;;;;;;;;;;;;;37.8;25.05078;101767.1;;;;-75
2022/08/13 10:38:07;;;;;;;4.1;1.4;;;;;;;;;;;;;-75
2022/08/13 10:41:28;;;;;;;;;;;;;;;37.94;25.33398;101760.9;;;;-75
2022/08/13 10:46:29;;;;;;;;;;;;;;;38.18;24.79688;101758;;;;-73
2022/08/13 10:51:30;;;;;;;;;;;;;;;38.37;24.8418;101760.8;;;;-75
2022/08/13 10:56:28;;;;;;;;;;;;;;;38.55;24.45703;101761.5;;;;-74
2022/08/13 11:01:28;;;;;;;;;;;;;;;38.71;24.57324;101761.3;;;;-76
2022/08/13 11:06:29;;;;;;;;;;;;;;;38.91;24.66797;101763.8;;;;-75
2022/08/13 11:08:19;;;;;;;2.5;1.5;;;;;;;;;;;;;-76
2022/08/13 11:11:28;;;;;;;;;;;;;;;39.17;23.81836;101756;;;;-76
2022/08/13 11:21:28;;;;;;;;;;;;;;;39.34;23.50293;101760.5;;;;-76
2022/08/13 11:26:28;;;;;;;;;;;;;;;39.31;23.8252;101746.3;;;;-76
2022/08/13 11:31:28;;;;;;;;;;;;;;;39.32;24.08984;101746.4;;;;-75
2022/08/13 11:36:28;;;;;;;;;;;;;;;39.45;23.72461;101744.3;;;;-78
2022/08/13 11:38:20;;;;;;;3;1.3;;;;;;;;;;;;;-75
2022/08/13 11:41:28;;;;;;;;;;;;;;;39.56;23.31055;101747;;;;-74
2022/08/13 11:46:29;;;;;;;;;;;;;;;39.69;23.83301;101737.1;;;;-80
2022/08/13 11:51:28;;;;;;;;;;;;;;;39.8;23.64648;101727.4;;;;-75
2022/08/13 11:56:28;;;;;;;;;;;;;;;39.98;23.24707;101723.6;;;;-74
2022/08/13 12:01:28;;;;;;;;;;;;;;;40.08;23.76953;101719.6;;;;-75
2022/08/13 12:06:28;;;;;;;;;;;;;;;40.17;23.38867;101718.5;;;;-75
2022/08/13 12:08:26;;;;;;;2.2;1.4;;;;;;;;;;;;;-76
2022/08/13 12:11:29;;;;;;;;;;;;;;;40.27;23.46582;101717.1;;;;-75
2022/08/13 12:16:28;;;;;;;;;;;;;;;40.35;23.5791;101716.5;;;;-75
2022/08/13 12:21:28;;;;;;;;;;;;;;;40.45;23.78809;101713.3;;;;-74
2022/08/13 12:26:28;;;;;;;;;;;;;;;40.52;23.6709;101710.8;;;;-75
2022/08/13 12:31:28;;;;;;;;;;;;;;;40.52;23.14258;101699.2;;;;-76
2022/08/13 12:36:28;;;;;;;;;;;;;;;40.58;23.93945;101700;;;;-74
2022/08/13 12:38:34;;;;;;;1.8;1.4;;;;;;;;;;;;;-78
2022/08/13 12:41:28;;;;;;;;;;;;;;;40.69;23.66797;101690.5;;;;-79
2022/08/13 12:46:28;;;;;;;;;;;;;;;40.77;22.91309;101682.6;;;;-75
2022/08/13 12:51:28;;;;;;;;;;;;;;;40.93;23.72852;101681.6;;;;-76
2022/08/13 12:56:28;;;;;;;;;;;;;;;41.08;23.71191;101675.9;;;;-75
2022/08/13 13:01:28;;;;;;;;;;;;;;;41.19;23.04297;101673.2;;;;-74
2022/08/13 13:06:30;;;;;;;;;;;;;;;41.27;23.04688;101664;;;;-75
2022/08/13 13:08:42;;;;;;;4;1.4;;;;;;;;;;;;;-76
2022/08/13 13:11:28;;;;;;;;;;;;;;;41.32;23.44727;101663.7;;;;-76
2022/08/13 13:16:28;;;;;;;;;;;;;;;41.53;23.75879;101663.2;;;;-75
2022/08/13 13:21:28;;;;;;;;;;;;;;;41.71;23.05664;101659.2;;;;-76
2022/08/13 13:26:28;;;;;;;;;;;;;;;41.84;22.47168;101645.7;;;;-75
2022/08/13 13:31:28;;;;;;;;;;;;;;;41.94;23.39453;101646.3;;;;-73
2022/08/13 13:36:28;;;;;;;;;;;;;;;42.04;21.40723;101637;;;;-76
2022/08/13 13:38:49;;;;;;;3.4;1.2;;;;;;;;;;;;;-75
2022/08/13 13:41:28;;;;;;;;;;;;;;;42.14;22.3291;101632;;;;-75
2022/08/13 13:46:28;;;;;;;;;;;;;;;42.15;21.45996;101631.5;;;;-76
2022/08/13 13:51:28;;;;;;;;;;;;;;;42.12;21.63965;101622.4;;;;-75
2022/08/13 13:56:28;;;;;;;;;;;;;;;42.12;21.73633;101624.4;;;;-76
2022/08/13 14:01:28;;;;;;;;;;;;;;;42.18;21.94434;101620.9;;;;-73
2022/08/13 14:06:28;;;;;;;;;;;;;;;42.24;21.07813;101616.5;;;;-76
2022/08/13 14:08:57;;;;;;;3.3;1.2;;;;;;;;;;;;;-75
2022/08/13 14:11:31;;;;;;;;;;;;;;;42.16;20.86816;101603.4;;;;-76
2022/08/13 14:16:28;;;;;;;;;;;;;;;42.12;21.22949;101601.5;;;;-75
2022/08/13 14:21:28;;;;;;;;;;;;;;;42.14;20.92773;101602;;;;-76
2022/08/13 14:26:30;;;;;;;;;;;;;;;42.1;20.43066;101592.6;;;;-75
2022/08/13 14:31:28;;;;;;;;;;;;;;;42.04;21.11621;101583.4;;;;-77
2022/08/13 14:36:28;;;;;;;;;;;;;;;42.01;20.75293;101579;;;;-75
2022/08/13 14:39:05;;;;;;;3;1.1;;;;;;;;;;;;;-75
2022/08/13 14:41:28;;;;;;;;;;;;;;;41.99;20.7041;101572.7;;;;-76
2022/08/13 14:46:28;;;;;;;;;;;;;;;41.87;20.62598;101574;;;;-76
2022/08/13 14:51:29;;;;;;;;;;;;;;;41.77;21.37012;101572.2;;;;-75
2022/08/13 14:56:28;;;;;;;;;;;;;;;41.73;21.69434;101567.2;;;;-75
2022/08/13 15:01:28;;;;;;;;;;;;;;;41.75;21.5498;101563;;;;-76
2022/08/13 15:06:30;;;;;;;;;;;;;;;41.78;22.14355;101560;;;;-74
2022/08/13 15:09:13;;;;;;;1.6;1;;;;;;;;;;;;;-75
2022/08/13 15:11:29;;;;;;;;;;;;;;;41.82;21.56543;101553.6;;;;-75
2022/08/13 15:16:30;;;;;;;;;;;;;;;41.84;21.53027;101549.9;;;;-75
2022/08/13 15:21:28;;;;;;;;;;;;;;;41.72;20.84863;101545;;;;-75
2022/08/13 15:26:28;;;;;;;;;;;;;;;41.6;21.51953;101540.3;;;;-75
2022/08/13 15:31:30;;;;;;;;;;;;;;;41.49;22.0332;101540.2;;;;-76
2022/08/13 15:36:28;;;;;;;;;;;;;;;41.42;21.60742;101539.8;;;;-75
2022/08/13 15:39:20;;;;;;;1.8;1.1;;;;;;;;;;;;;-75
2022/08/13 15:41:28;;;;;;;;;;;;;;;41.32;21.53027;101532;;;;-74
2022/08/13 15:46:29;;;;;;;;;;;;;;;41.21;21.35645;101526.5;;;;-76
2022/08/13 15:51:28;;;;;;;;;;;;;;;41.03;21.05859;101523.3;;;;-76
2022/08/13 15:56:29;;;;;;;;;;;;;;;40.87;21.44922;101513.1;;;;-75
2022/08/13 16:01:29;;;;;;;;;;;;;;;40.69;20.77832;101507.2;;;;-75
2022/08/13 16:06:30;;;;;;;;;;;;;;;40.52;21.3252;101496.7;;;;-75
2022/08/13 16:09:27;;;;;;;1.9;1;;;;;;;;;;;;;-74
2022/08/13 16:11:28;;;;;;;;;;;;;;;40.37;21.37793;101491.6;;;;-74
2022/08/13 16:16:28;;;;;;;;;;;;;;;40.23;21.9248;101485;;;;-74
2022/08/13 16:21:28;;;;;;;;;;;;;;;40.08;21.35254;101481;;;;-73
2022/08/13 16:26:29;;;;;;;;;;;;;;;39.92;20.87695;101482.4;;;;-76
2022/08/13 16:31:29;;;;;;;;;;;;;;;39.74;21.2168;101477.1;;;;-75
2022/08/13 16:36:28;;;;;;;;;;;;;;;39.56;20.98047;101469.5;;;;-75
2022/08/13 16:39:34;;;;;;;2.2;1.3;;;;;;;;;;;;;-74
2022/08/13 16:41:43;;;;;;;;;;;;;;;39.34;21.03027;101466.1;;;;-75
2022/08/13 16:46:31;;;;;;;;;;;;;;;39.14;21.59766;101460.8;;;;-75
2022/08/13 16:51:28;;;;;;;;;;;;;;;38.95;21.7207;101460.5;;;;-76
2022/08/13 16:56:30;;;;;;;;;;;;;;;38.74;21.38672;101455.9;;;;-74
2022/08/13 17:01:29;;;;;;;;;;;;;;;38.52;21.97559;101452;;;;-76
2022/08/13 17:09:41;;;;;;;2.9;1.4;;;;;;;;;;;;;-76
2022/08/13 17:11:34;;;;;;;;;;;;;;;38.08;22.67285;101450.5;;;;-75
2022/08/13 17:16:28;;;;;;;;;;;;;;;37.86;22.92578;101453.8;;;;-76
2022/08/13 17:21:30;;;;;;;;;;;;;;;37.63;22.74707;101450.4;;;;-75
2022/08/13 17:26:29;;;;;;;;;;;;;;;37.39;23.18848;101443.6;;;;-77
2022/08/13 17:31:30;;;;;;;;;;;;;;;37.11;22.95996;101440.6;;;;-78
2022/08/13 17:36:29;;;;;;;;;;;;;;;36.83;22.94629;101434.5;;;;-74
2022/08/13 17:39:47;;;;;;;1.8;1.3;;;;;;;;;;;;;-74
2022/08/13 17:41:28;;;;;;;;;;;;;;;36.53;23.18164;101437.5;;;;-76
2022/08/13 17:46:28;;;;;;;;;;;;;;;36.27;23.43066;101438.3;;;;-75
2022/08/13 17:51:28;;;;;;;;;;;;;;;35.96;23.3916;101438.1;;;;-78
2022/08/13 17:56:28;;;;;;;;;;;;;;;35.68;24.10352;101436.3;;;;-76
2022/08/13 18:01:28;;;;;;;;;;;;;;;35.39;24.25391;101437.1;;;;-76
2022/08/13 18:06:29;;;;;;;;;;;;;;;35.07;24.20117;101431.5;;;;-76
2022/08/13 18:09:54;;;;;;;2.2;1.6;;;;;;;;;;;;;-77
2022/08/13 18:11:28;;;;;;;;;;;;;;;34.81;24.75781;101430.2;;;;-77
2022/08/13 18:16:28;;;;;;;;;;;;;;;34.53;24.80176;101434.6;;;;-75
2022/08/13 18:21:28;;;;;;;;;;;;;;;34.22;24.86816;101433.3;;;;-77
2022/08/13 18:26:29;;;;;;;;;;;;;;;33.89;25.0293;101438.7;;;;-77
2022/08/13 18:31:28;;;;;;;;;;;;;;;33.52;25.15039;101440.3;;;;-76
2022/08/13 18:36:29;;;;;;;;;;;;;;;33.19;25.36914;101440;;;;-76
2022/08/13 18:39:59;;;;;;;2.7;1.9;;;;;;;;;;;;;-77
2022/08/13 18:41:28;;;;;;;;;;;;;;;32.86;25.72852;101440.5;;;;-80
2022/08/13 18:46:28;;;;;;;;;;;;;;;32.55;26.08887;101439.5;;;;-76
2022/08/13 18:51:29;;;;;;;;;;;;;;;32.25;26.25;101437.3;;;;-76
2022/08/13 18:56:28;;;;;;;;;;;;;;;31.95;26.49219;101436.7;;;;-74
2022/08/13 19:01:28;;;;;;;;;;;;;;;31.66;26.80469;101440.1;;;;-76
2022/08/13 19:06:29;;;;;;;;;;;;;;;31.35;27.14063;101441.6;;;;-74
2022/08/13 19:10:05;;;;;;;2.8;2.2;;;;;;;;;;;;;-75
2022/08/13 19:11:29;;;;;;;;;;;;;;;31.06;27.41699;101439.5;;;;-76
2022/08/13 19:16:28;;;;;;;;;;;;;;;30.76;27.92871;101434.3;;;;-75
2022/08/13 19:21:28;;;;;;;;;;;;;;;30.49;28.27637;101435.1;;;;-76
2022/08/13 19:26:28;;;;;;;;;;;;;;;30.21;28.59961;101438;;;;-75
2022/08/13 19:31:30;;;;;;;;;;;;;;;29.94;29.0166;101439.2;;;;-75
2022/08/13 19:36:30;;;;;;;;;;;;;;;29.7;29.25879;101448;;;;-75
2022/08/13 19:40:11;;;;;;;3.2;2.2;;;;;;;;;;;;;-75
2022/08/13 19:41:29;;;;;;;;;;;;;;;29.45;29.6416;101443.9;;;;-75
2022/08/13 19:46:28;;;;;;;;;;;;;;;29.2;30.04785;101444.6;;;;-75
2022/08/13 19:51:28;;;;;;;;;;;;;;;28.97;30.31348;101448.9;;;;-75
2022/08/13 19:56:28;;;;;;;;;;;;;;;28.74;30.75391;101448.5;;;;-76
2022/08/13 20:01:28;;;;;;;;;;;;;;;28.53;31.19531;101449.8;;;;-75
2022/08/13 20:06:28;;;;;;;;;;;;;;;28.33;31.4043;101449.4;;;;-76
2022/08/13 20:10:15;;;;;;;3.4;2.6;;;;;;;;;;;;;-76
2022/08/13 20:11:28;;;;;;;;;;;;;;;28.14;31.74121;101442.1;;;;-74
2022/08/13 20:16:29;;;;;;;;;;;;;;;27.96;32.20801;101440.5;;;;-75
2022/08/13 20:21:30;;;;;;;;;;;;;;;27.79;32.34668;101439.6;;;;-75
2022/08/13 20:26:29;;;;;;;;;;;;;;;27.61;32.61426;101433.3;;;;-74
2022/08/13 20:31:30;;;;;;;;;;;;;;;27.46;32.92969;101437.8;;;;-74
2022/08/13 20:36:28;;;;;;;;;;;;;;;27.31;33.10547;101433.3;;;;-74
2022/08/13 20:40:20;;;;;;;4.1;2.6;;;;;;;;;;;;;-74
2022/08/13 20:41:29;;;;;;;;;;;;;;;27.17;33.65332;101436;;;;-75
2022/08/13 20:46:28;;;;;;;;;;;;;;;27.03;33.73633;101436.2;;;;-74
2022/08/13 20:51:28;;;;;;;;;;;;;;;26.91;33.90332;101439.9;;;;-75
2022/08/13 20:56:28;;;;;;;;;;;;;;;26.78;34.06738;101442.6;;;;-75
2022/08/13 21:01:28;;;;;;;;;;;;;;;26.64;34.3125;101439.4;;;;-74
2022/08/13 21:06:28;;;;;;;;;;;;;;;26.49;34.7666;101435.6;;;;-75
2022/08/13 21:10:26;;;;;;;3.5;2.7;;;;;;;;;;;;;-75
2022/08/13 21:11:31;;;;;;;;;;;;;;;26.31;34.99512;101433;;;;-74
2022/08/13 21:16:28;;;;;;;;;;;;;;;26.17;35.39258;101433.2;;;;-76
2022/08/13 21:21:28;;;;;;;;;;;;;;;26.01;35.73926;101424.8;;;;-75
2022/08/13 21:26:28;;;;;;;;;;;;;;;25.86;35.85449;101423;;;;-74
2022/08/13 21:31:28;;;;;;;;;;;;;;;25.68;36.03809;101420.8;;;;-76
2022/08/13 21:36:28;;;;;;;;;;;;;;;25.52;36.37305;101422;;;;-77
2022/08/13 21:40:29;;;;;;;3.9;2.9;;;;;;;;;;;;;-75
2022/08/13 21:41:28;;;;;;;;;;;;;;;25.38;36.61719;101416.4;;;;-75
2022/08/13 21:46:28;;;;;;;;;;;;;;;25.23;36.81348;101412.6;;;;-74
2022/08/13 21:51:28;;;;;;;;;;;;;;;25.09;36.90625;101411.5;;;;-74
2022/08/13 21:56:28;;;;;;;;;;;;;;;24.96;37.27734;101405.1;;;;-75
2022/08/13 22:01:28;;;;;;;;;;;;;;;24.84;37.2793;101408.3;;;;-75
2022/08/13 22:06:29;;;;;;;;;;;;;;;24.72;37.61621;101411;;;;-77
2022/08/13 22:10:35;;;;;;;4.1;3;;;;;;;;;;;;;-74
2022/08/13 22:11:28;;;;;;;;;;;;;;;24.6;37.72168;101407.8;;;;-74
2022/08/13 22:16:28;;;;;;;;;;;;;;;24.51;37.79492;101401.5;;;;-74
2022/08/13 22:21:28;;;;;;;;;;;;;;;24.43;38.1709;101406.9;;;;-75
2022/08/13 22:26:28;;;;;;;;;;;;;;;24.39;38.10938;101406.4;;;;-75
2022/08/13 22:31:31;;;;;;;;;;;;;;;24.34;38.68262;101402.7;;;;-73
2022/08/13 22:36:28;;;;;;;;;;;;;;;24.3;39.36133;101399.2;;;;-74
2022/08/13 22:40:36;;;;;;;4.9;3.3;;;;;;;;;;;;;-73
2022/08/13 22:41:28;;;;;;;;;;;;;;;24.28;39.71777;101397;;;;-75
2022/08/13 22:46:28;;;;;;;;;;;;;;;24.25;40.97461;101396.9;;;;-74
2022/08/13 22:51:28;;;;;;;;;;;;;;;24.22;40.57813;101389.7;;;;-75
2022/08/13 22:56:28;;;;;;;;;;;;;;;24.17;40.65625;101390.6;;;;-74
2022/08/13 23:01:28;;;;;;;;;;;;;;;24.16;40.61914;101389.6;;;;-74
2022/08/13 23:06:29;;;;;;;;;;;;;;;24.12;40.91602;101383.3;;;;-75
2022/08/13 23:10:42;;;;;;;5;3.8;;;;;;;;;;;;;-74
2022/08/13 23:11:28;;;;;;;;;;;;;;;24.09;41.19043;101378.6;;;;-75
2022/08/13 23:16:29;;;;;;;;;;;;;;;24.05;41.36035;101370.5;;;;-75
2022/08/13 23:21:28;;;;;;;;;;;;;;;24.02;41.47168;101367.2;;;;-74
2022/08/13 23:26:29;;;;;;;;;;;;;;;23.97;41.80273;101363.3;;;;-74
2022/08/13 23:31:29;;;;;;;;;;;;;;;23.94;41.86914;101353.7;;;;-74
2022/08/13 23:36:28;;;;;;;;;;;;;;;23.92;41.98145;101353;;;;-75
2022/08/13 23:40:44;;;;;;;6.2;3.9;;;;;;;;;;;;;-75
2022/08/13 23:41:29;;;;;;;;;;;;;;;23.88;42.42871;101349.8;;;;-75
2022/08/13 23:46:28;;;;;;;;;;;;;;;23.84;42.32129;101344.4;;;;-74
2022/08/13 23:51:28;;;;;;;;;;;;;;;23.8;42.27051;101341.1;;;;-75
2022/08/13 23:56:28;;;;;;;;;;;;;;;23.74;42.01172;101333.3;;;;-74
